createdAt,value
2023-02-17T00:01:32.462Z,96.43
2023-02-17T00:04:01.225Z,96.15
2023-02-17T00:06:30.885Z,96.61
2023-02-17T00:09:00.220Z,96.66
2023-02-17T00:11:31.428Z,97.10
2023-02-17T00:14:00.582Z,97.48
2023-02-17T00:16:29.166Z,98.73
2023-02-17T00:18:59.574Z,99.51
2023-02-17T00:21:30.972Z,100.00
2023-02-17T00:24:00.246Z,100.00
2023-02-17T00:26:28.409Z,100.00
2023-02-17T00:28:58.134Z,100.00
2023-02-17T00:31:26.130Z,100.00
2023-02-17T00:33:56.046Z,100.00
2023-02-17T00:36:25.113Z,100.00
2023-02-17T00:38:55.234Z,100.00
2023-02-17T00:41:23.905Z,100.00
2023-02-17T00:43:51.741Z,100.00
2023-02-17T00:46:19.696Z,100.00
2023-02-17T00:48:49.011Z,100.00
2023-02-17T00:51:18.040Z,100.00
2023-02-17T00:53:46.238Z,100.00
2023-02-17T00:56:14.148Z,100.00
2023-02-17T00:58:42.733Z,100.00
2023-02-17T01:01:12.112Z,100.00
2023-02-17T01:03:42.473Z,100.00
2023-02-17T01:06:18.346Z,100.00
2023-02-17T01:08:46.190Z,100.00
2023-02-17T01:11:19.267Z,100.00
2023-02-17T01:13:47.406Z,100.00
2023-02-17T01:16:19.027Z,100.00
2023-02-17T01:18:47.045Z,100.00
2023-02-17T01:21:27.747Z,100.00
2023-02-17T01:23:58.935Z,100.00
2023-02-17T01:26:29.541Z,100.00
2023-02-17T01:28:58.217Z,100.00
2023-02-17T01:31:27.523Z,100.00
2023-02-17T01:34:01.149Z,100.00
2023-02-17T01:36:29.843Z,100.00
2023-02-17T01:38:57.820Z,100.00
2023-02-17T01:41:27.276Z,100.00
2023-02-17T01:44:15.636Z,100.00
2023-02-17T01:46:48.019Z,100.00
2023-02-17T01:49:31.567Z,100.00
2023-02-17T01:52:15.338Z,100.00
2023-02-17T01:54:47.964Z,100.00
2023-02-17T01:57:20.103Z,100.00
2023-02-17T01:59:48.894Z,100.00
2023-02-17T02:02:17.164Z,100.00
2023-02-17T02:04:48.749Z,100.00
2023-02-17T02:07:21.347Z,100.00
2023-02-17T02:09:58.222Z,100.00
2023-02-17T02:12:32.226Z,100.00
2023-02-17T02:15:05.555Z,100.00
2023-02-17T02:17:36.433Z,100.00
2023-02-17T02:20:27.284Z,100.00
2023-02-17T02:23:16.819Z,100.00
2023-02-17T02:25:56.816Z,100.00
2023-02-17T02:28:36.510Z,100.00
2023-02-17T02:31:23.338Z,100.00
2023-02-17T02:33:57.321Z,100.00
2023-02-17T02:36:31.488Z,100.00
2023-02-17T02:39:13.150Z,100.00
2023-02-17T02:41:45.929Z,100.00
2023-02-17T02:44:19.361Z,100.00
2023-02-17T02:46:57.571Z,100.00
2023-02-17T02:49:26.860Z,100.00
2023-02-17T02:51:57.438Z,100.00
2023-02-17T02:54:51.166Z,100.00
2023-02-17T02:57:54.810Z,100.00
2023-02-17T03:00:33.320Z,100.00
2023-02-17T03:03:27.107Z,100.00
2023-02-17T03:06:22.544Z,100.00
2023-02-17T03:09:21.882Z,100.00
2023-02-17T03:11:50.406Z,100.00
2023-02-17T03:14:21.760Z,100.00
2023-02-17T03:16:51.169Z,100.00
2023-02-17T03:19:22.390Z,100.00
2023-02-17T03:22:06.432Z,100.00
2023-02-17T03:24:35.149Z,100.00
2023-02-17T03:27:03.383Z,100.00
2023-02-17T03:29:31.407Z,100.00
2023-02-17T03:31:59.627Z,100.00
2023-02-17T03:34:27.575Z,100.00
2023-02-17T03:36:55.478Z,100.00
2023-02-17T03:39:23.525Z,100.00
2023-02-17T03:41:51.955Z,100.00
2023-02-17T03:44:20.262Z,100.00
2023-02-17T03:46:48.032Z,100.00
2023-02-17T03:49:15.906Z,100.00
2023-02-17T03:51:43.745Z,100.00
2023-02-17T03:54:11.582Z,100.00
2023-02-17T03:56:39.450Z,100.00
2023-02-17T03:59:07.406Z,100.00
2023-02-17T04:01:35.270Z,100.00
2023-02-17T04:04:03.424Z,100.00
2023-02-17T04:06:31.349Z,100.00
2023-02-17T04:08:59.133Z,100.00
2023-02-17T04:11:26.966Z,100.00
2023-02-17T04:13:54.844Z,100.00
2023-02-17T04:16:22.776Z,100.00
2023-02-17T04:18:50.710Z,100.00
2023-02-17T04:21:18.675Z,100.00
2023-02-17T04:23:46.544Z,100.00
2023-02-17T04:26:14.507Z,100.00
2023-02-17T04:28:43.371Z,100.00
2023-02-17T04:31:11.408Z,100.00
2023-02-17T04:33:39.440Z,100.00
2023-02-17T04:36:08.709Z,100.00
2023-02-17T04:38:36.717Z,100.00
2023-02-17T04:41:06.629Z,100.00
2023-02-17T04:43:34.541Z,100.00
2023-02-17T04:46:02.962Z,100.00
2023-02-17T04:48:31.024Z,100.00
2023-02-17T04:50:58.936Z,100.00
2023-02-17T04:53:26.850Z,100.00
2023-02-17T04:55:54.700Z,100.00
2023-02-17T04:58:22.676Z,100.00
2023-02-17T05:00:51.249Z,100.00
2023-02-17T05:03:19.821Z,100.00
2023-02-17T05:05:47.764Z,100.00
2023-02-17T05:08:16.016Z,100.00
2023-02-17T05:10:43.890Z,100.00
2023-02-17T05:13:11.775Z,100.00
2023-02-17T05:15:39.783Z,100.00
2023-02-17T05:18:10.116Z,100.00
2023-02-17T05:20:37.988Z,100.00
2023-02-17T05:23:05.986Z,100.00
2023-02-17T05:25:33.885Z,100.00
2023-02-17T05:28:01.965Z,100.00
2023-02-17T05:30:29.876Z,100.00
2023-02-17T05:32:57.788Z,100.00
2023-02-17T05:35:25.665Z,100.00
2023-02-17T05:37:53.490Z,100.00
2023-02-17T05:40:21.513Z,100.00
2023-02-17T05:42:49.374Z,100.00
2023-02-17T05:45:17.297Z,100.00
2023-02-17T05:47:45.140Z,100.00
2023-02-17T05:50:13.139Z,100.00
2023-02-17T05:52:40.888Z,100.00
2023-02-17T05:55:09.222Z,100.00
2023-02-17T05:57:36.996Z,100.00
2023-02-17T06:00:05.164Z,100.00
2023-02-17T06:02:40.062Z,100.00
2023-02-17T06:05:09.008Z,100.00
2023-02-17T06:07:37.126Z,100.00
2023-02-17T06:10:05.487Z,100.00
2023-02-17T06:12:33.420Z,100.00
2023-02-17T06:15:01.444Z,100.00
2023-02-17T06:17:29.273Z,100.00
2023-02-17T06:19:57.046Z,100.00
2023-02-17T06:22:24.863Z,100.00
2023-02-17T06:24:52.724Z,100.00
2023-02-17T06:27:20.525Z,100.00
2023-02-17T06:29:48.400Z,100.00
2023-02-17T06:32:16.310Z,100.00
2023-02-17T06:34:44.203Z,100.00
2023-02-17T06:37:12.041Z,100.00
2023-02-17T06:39:39.939Z,100.00
2023-02-17T06:42:07.849Z,100.00
2023-02-17T06:44:37.416Z,100.00
2023-02-17T06:47:05.418Z,100.00
2023-02-17T06:49:33.299Z,100.00
2023-02-17T06:52:01.164Z,100.00
2023-02-17T06:54:29.025Z,100.00
2023-02-17T06:56:56.847Z,100.00
2023-02-17T06:59:24.984Z,100.00
2023-02-17T07:01:52.921Z,100.00
2023-02-17T07:04:20.870Z,100.00
2023-02-17T07:06:48.754Z,100.00
2023-02-17T07:09:16.691Z,100.00
2023-02-17T07:11:45.485Z,100.00
2023-02-17T07:14:13.377Z,99.95
2023-02-17T07:16:41.233Z,100.00
2023-02-17T07:19:09.225Z,100.00
2023-02-17T07:21:37.200Z,100.00
2023-02-17T07:24:05.290Z,100.00
2023-02-17T07:26:37.012Z,98.71
2023-02-17T07:29:06.164Z,97.05
2023-02-17T07:31:35.036Z,98.00
2023-02-17T07:34:04.350Z,97.58
2023-02-17T07:36:32.376Z,98.36
2023-02-17T07:39:00.172Z,98.37
2023-02-17T07:41:32.973Z,98.17
2023-02-17T07:44:10.157Z,97.85
2023-02-17T07:46:40.061Z,96.56
2023-02-17T07:49:08.779Z,96.79
2023-02-17T07:51:36.811Z,96.65
2023-02-17T07:54:04.830Z,95.36
2023-02-17T07:56:33.939Z,95.68
2023-02-17T07:59:01.880Z,95.65
2023-02-17T08:01:30.032Z,93.51
2023-02-17T08:03:58.216Z,94.60
2023-02-17T08:06:27.085Z,94.89
2023-02-17T08:09:13.959Z,94.66
2023-02-17T08:12:01.556Z,92.58
2023-02-17T08:14:31.976Z,91.60
2023-02-17T08:17:00.352Z,91.71
2023-02-17T08:19:36.673Z,92.08
2023-02-17T08:22:14.283Z,90.89
2023-02-17T08:24:42.171Z,91.94
2023-02-17T08:27:10.051Z,93.52
2023-02-17T08:29:38.097Z,92.73
2023-02-17T08:32:06.126Z,92.35
2023-02-17T08:34:34.105Z,91.55
2023-02-17T08:37:03.681Z,90.84
2023-02-17T08:39:33.793Z,90.81
2023-02-17T08:42:02.125Z,94.15
2023-02-17T08:44:29.974Z,94.77
2023-02-17T08:46:57.764Z,94.99
2023-02-17T08:49:28.689Z,94.78
2023-02-17T08:51:56.738Z,92.85
2023-02-17T08:54:24.645Z,91.30
2023-02-17T08:56:52.470Z,89.75
2023-02-17T08:59:20.446Z,88.88
2023-02-17T09:01:48.321Z,88.28
2023-02-17T09:04:16.827Z,89.10
2023-02-17T09:06:51.460Z,87.33
2023-02-17T09:09:23.759Z,85.64
2023-02-17T09:11:51.721Z,84.37
2023-02-17T09:14:19.559Z,84.01
2023-02-17T09:16:47.496Z,82.56
2023-02-17T09:19:15.374Z,83.21
2023-02-17T09:21:43.438Z,83.60
2023-02-17T09:24:11.588Z,83.79
2023-02-17T09:26:39.382Z,81.35
2023-02-17T09:29:08.483Z,79.67
2023-02-17T09:31:37.287Z,79.39
2023-02-17T09:34:06.106Z,80.27
2023-02-17T09:36:38.883Z,79.29
2023-02-17T09:39:07.094Z,80.57
2023-02-17T09:41:41.062Z,78.79
2023-02-17T09:44:20.862Z,78.03
2023-02-17T09:47:02.104Z,76.81
2023-02-17T09:49:40.301Z,75.60
2023-02-17T09:52:15.202Z,75.41
2023-02-17T09:54:54.178Z,73.88
2023-02-17T09:57:27.648Z,72.54
2023-02-17T10:00:02.888Z,74.17
2023-02-17T10:02:48.664Z,73.37
2023-02-17T10:05:21.781Z,72.99
2023-02-17T10:08:13.181Z,72.79
2023-02-17T10:10:56.533Z,73.28
2023-02-17T10:13:29.888Z,72.81
2023-02-17T10:16:05.713Z,73.43
2023-02-17T10:18:48.976Z,73.89
2023-02-17T10:21:26.741Z,73.80
2023-02-17T10:23:54.934Z,72.98
2023-02-17T10:26:45.305Z,72.16
2023-02-17T10:29:38.106Z,73.16
2023-02-17T10:32:25.534Z,72.79
2023-02-17T10:35:23.136Z,73.58
2023-02-17T10:38:01.353Z,74.96
2023-02-17T10:40:29.777Z,73.56
2023-02-17T10:43:07.023Z,71.22
2023-02-17T10:45:36.330Z,70.83
2023-02-17T10:48:12.946Z,70.35
2023-02-17T10:50:44.287Z,71.02
2023-02-17T10:53:15.042Z,72.27
2023-02-17T10:56:14.723Z,70.49
2023-02-17T10:59:04.830Z,69.50
2023-02-17T11:01:34.104Z,69.88
2023-02-17T11:04:06.916Z,67.74
2023-02-17T11:06:42.971Z,69.55
2023-02-17T11:09:28.806Z,69.88
2023-02-17T11:12:02.954Z,67.16
2023-02-17T11:14:33.479Z,66.74
2023-02-17T11:17:04.422Z,65.84
2023-02-17T11:19:35.723Z,68.72
2023-02-17T11:22:06.582Z,68.43
2023-02-17T11:24:35.584Z,70.16
2023-02-17T11:27:08.690Z,68.44
2023-02-17T11:29:37.052Z,67.24
2023-02-17T11:32:09.183Z,66.73
2023-02-17T11:34:40.632Z,66.57
2023-02-17T11:37:14.578Z,64.38
2023-02-17T11:39:48.421Z,67.87
2023-02-17T11:42:23.595Z,68.51
2023-02-17T11:44:54.090Z,69.21
2023-02-17T11:47:39.899Z,68.75
2023-02-17T11:50:40.682Z,67.26
2023-02-17T11:53:30.007Z,66.04
2023-02-17T11:56:22.953Z,67.21
2023-02-17T11:59:09.689Z,66.17
2023-02-17T12:01:54.988Z,66.41
2023-02-17T12:05:17.706Z,66.19
2023-02-17T12:08:04.709Z,67.28
2023-02-17T12:10:54.381Z,67.05
2023-02-17T12:13:43.484Z,66.71
2023-02-17T12:16:36.885Z,66.05
2023-02-17T12:19:28.517Z,66.62
2023-02-17T12:22:19.190Z,65.49
2023-02-17T12:24:58.771Z,65.77
2023-02-17T12:27:37.287Z,65.17
2023-02-17T12:30:46.351Z,66.97
2023-02-17T12:33:32.943Z,65.26
2023-02-17T12:36:21.691Z,64.32
2023-02-17T12:38:55.402Z,64.14
2023-02-17T12:41:28.490Z,65.69
2023-02-17T12:44:02.270Z,65.66
2023-02-17T12:46:46.928Z,67.23
2023-02-17T12:49:32.570Z,67.28
2023-02-17T12:52:28.874Z,66.82
2023-02-17T12:55:13.212Z,69.17
2023-02-17T12:57:58.335Z,66.83
2023-02-17T13:00:35.324Z,64.48
2023-02-17T13:03:04.393Z,63.48
2023-02-17T13:06:00.550Z,63.38
2023-02-17T13:08:39.560Z,64.00
2023-02-17T13:11:25.797Z,63.44
2023-02-17T13:13:53.768Z,64.05
2023-02-17T13:16:22.065Z,63.64
2023-02-17T13:18:52.429Z,66.08
2023-02-17T13:21:25.056Z,67.21
2023-02-17T13:24:03.020Z,66.37
2023-02-17T13:26:33.865Z,66.08
2023-02-17T13:29:26.552Z,65.66
2023-02-17T13:32:02.439Z,63.33
2023-02-17T13:34:39.536Z,62.91
2023-02-17T13:37:39.671Z,60.95
2023-02-17T13:40:16.998Z,61.18
2023-02-17T13:42:50.745Z,61.15
2023-02-17T13:45:26.114Z,59.93
2023-02-17T13:47:59.579Z,59.58
2023-02-17T13:50:30.344Z,59.85
2023-02-17T13:52:58.657Z,59.38
2023-02-17T13:55:26.921Z,60.00
2023-02-17T13:57:59.482Z,60.51
2023-02-17T14:00:32.307Z,60.49
2023-02-17T14:03:16.362Z,60.66
2023-02-17T14:05:47.193Z,60.78
2023-02-17T14:08:26.759Z,61.68
2023-02-17T14:10:55.165Z,60.81
2023-02-17T14:13:24.033Z,60.04
2023-02-17T14:16:02.991Z,59.96
2023-02-17T14:18:39.110Z,61.06
2023-02-17T14:21:31.688Z,60.21
2023-02-17T14:24:00.369Z,58.38
2023-02-17T14:26:47.588Z,59.54
2023-02-17T14:29:16.354Z,59.97
2023-02-17T14:31:50.543Z,60.07
2023-02-17T14:34:21.425Z,60.73
2023-02-17T14:36:49.304Z,60.22
2023-02-17T14:39:17.440Z,60.10
2023-02-17T14:41:45.452Z,60.16
2023-02-17T14:44:13.387Z,61.23
2023-02-17T14:46:41.225Z,61.85
2023-02-17T14:49:09.176Z,61.67
2023-02-17T14:51:38.130Z,62.77
2023-02-17T14:54:21.129Z,62.10
2023-02-17T14:57:12.736Z,61.84
2023-02-17T14:59:41.211Z,62.79
2023-02-17T15:02:18.168Z,62.47
2023-02-17T15:04:46.284Z,61.89
2023-02-17T15:07:19.016Z,60.21
2023-02-17T15:09:49.266Z,59.54
2023-02-17T15:12:20.386Z,60.61
2023-02-17T15:14:48.973Z,61.37
2023-02-17T15:17:18.741Z,61.54
2023-02-17T15:19:46.755Z,62.25
2023-02-17T15:22:15.307Z,62.92
2023-02-17T15:24:43.441Z,64.05
2023-02-17T15:27:14.654Z,65.12
2023-02-17T15:29:42.577Z,65.40
2023-02-17T15:32:20.681Z,65.53
2023-02-17T15:39:14.831Z,65.55
2023-02-17T15:41:47.265Z,66.38
2023-02-17T15:44:24.605Z,66.38
2023-02-17T15:46:55.309Z,67.30
2023-02-17T15:49:28.942Z,67.70
2023-02-17T15:51:57.149Z,67.06
2023-02-17T15:54:32.091Z,68.01
2023-02-17T15:57:02.718Z,68.10
2023-02-17T15:59:30.639Z,68.37
2023-02-17T16:02:01.437Z,69.04
2023-02-17T16:04:30.768Z,68.87
2023-02-17T16:06:59.693Z,69.60
2023-02-17T16:09:27.632Z,70.07
2023-02-17T16:11:57.504Z,71.54
2023-02-17T16:14:35.538Z,72.42
2023-02-17T16:17:05.004Z,73.73
2023-02-17T16:19:33.574Z,74.32
2023-02-17T16:22:04.113Z,75.96
2023-02-17T16:24:31.847Z,76.73
2023-02-17T16:27:00.260Z,77.14
2023-02-17T16:29:28.051Z,77.53
2023-02-17T16:31:56.203Z,79.40
2023-02-17T16:34:26.077Z,79.75
2023-02-17T16:36:57.649Z,80.10
2023-02-17T16:39:26.043Z,81.46
2023-02-17T16:41:54.026Z,81.40
2023-02-17T16:44:23.598Z,81.47
2023-02-17T16:46:55.789Z,81.70
2023-02-17T16:49:34.175Z,82.06
2023-02-17T16:52:08.477Z,83.19
2023-02-17T16:54:36.378Z,83.81
2023-02-17T16:57:04.300Z,84.19
2023-02-17T16:59:32.040Z,84.93
2023-02-17T17:01:59.686Z,86.08
2023-02-17T17:04:27.918Z,86.25
2023-02-17T17:06:55.652Z,86.32
2023-02-17T17:09:24.579Z,88.00
2023-02-17T17:11:52.344Z,87.10
2023-02-17T17:14:21.666Z,85.86
2023-02-17T17:16:55.016Z,88.10
2023-02-17T17:19:23.290Z,87.52
2023-02-17T17:21:51.234Z,88.38
2023-02-17T17:24:19.203Z,88.33
2023-02-17T17:26:48.190Z,88.17
2023-02-17T17:29:17.594Z,88.45
2023-02-17T17:31:45.725Z,89.06
2023-02-17T17:34:13.662Z,89.99
2023-02-17T17:36:44.527Z,90.67
2023-02-17T17:39:16.616Z,90.69
2023-02-17T17:41:45.144Z,91.38
2023-02-17T17:44:12.991Z,92.68
2023-02-17T17:46:41.330Z,92.27
2023-02-17T17:49:12.657Z,92.51
2023-02-17T17:51:41.128Z,93.24
2023-02-17T17:54:09.563Z,92.70
2023-02-17T17:56:45.305Z,93.55
2023-02-17T17:59:13.911Z,93.57
2023-02-17T18:01:43.844Z,93.36
2023-02-17T18:04:13.090Z,93.54
2023-02-17T18:06:45.973Z,93.13
2023-02-17T18:09:31.925Z,93.45
2023-02-17T18:12:05.036Z,92.47
2023-02-17T18:14:33.326Z,92.91
2023-02-17T18:17:01.433Z,93.04
2023-02-17T18:19:30.968Z,93.66
2023-02-17T18:21:58.723Z,94.14
2023-02-17T18:24:26.544Z,94.17
2023-02-17T18:26:54.863Z,93.74
2023-02-17T18:29:22.741Z,93.80
2023-02-17T18:31:51.017Z,94.08
2023-02-17T18:34:19.166Z,94.43
2023-02-17T18:36:49.832Z,93.79
2023-02-17T18:39:17.717Z,93.86
2023-02-17T18:41:45.412Z,93.64
2023-02-17T18:44:13.848Z,93.73
2023-02-17T18:46:41.745Z,93.38
2023-02-17T18:49:09.941Z,93.11
2023-02-17T18:51:37.707Z,93.75
2023-02-17T18:54:05.712Z,94.16
2023-02-17T18:56:34.082Z,93.98
2023-02-17T18:59:01.836Z,94.84
2023-02-17T19:01:33.434Z,94.38
2023-02-17T19:04:04.087Z,94.64
2023-02-17T19:06:34.768Z,94.74
2023-02-17T19:09:06.766Z,95.04
2023-02-17T19:11:34.807Z,95.11
2023-02-17T19:14:03.594Z,95.51
2023-02-17T19:16:32.345Z,96.54
2023-02-17T19:19:01.386Z,97.32
2023-02-17T19:21:31.181Z,97.62
2023-02-17T19:23:59.076Z,97.17
2023-02-17T19:26:26.852Z,97.51
2023-02-17T19:28:54.589Z,98.15
2023-02-17T19:31:24.272Z,98.09
2023-02-17T19:33:52.073Z,98.63
2023-02-17T19:36:22.098Z,99.71
2023-02-17T19:38:51.326Z,99.87
2023-02-17T19:41:19.530Z,100.00
2023-02-17T19:43:47.623Z,100.00
2023-02-17T19:46:18.412Z,100.00
2023-02-17T19:48:46.756Z,100.00
2023-02-17T19:51:15.036Z,100.00
2023-02-17T19:53:43.595Z,100.00
2023-02-17T19:56:16.310Z,100.00
2023-02-17T19:58:48.287Z,100.00
2023-02-17T20:01:22.049Z,100.00
2023-02-17T20:03:51.333Z,100.00
2023-02-17T20:06:21.652Z,100.00
2023-02-17T20:08:55.355Z,100.00
2023-02-17T20:11:23.322Z,100.00
2023-02-17T20:13:51.217Z,100.00
2023-02-17T20:16:19.840Z,100.00
2023-02-17T20:18:51.701Z,100.00
2023-02-17T20:21:23.671Z,100.00
2023-02-17T20:23:52.703Z,100.00
2023-02-17T20:26:23.945Z,100.00
2023-02-17T20:28:52.936Z,100.00
2023-02-17T20:31:21.289Z,100.00
2023-02-17T20:33:49.220Z,100.00
2023-02-17T20:36:17.591Z,100.00
2023-02-17T20:38:45.740Z,100.00
2023-02-17T20:41:18.267Z,100.00
2023-02-17T20:43:46.307Z,100.00
2023-02-17T20:46:33.663Z,100.00
2023-02-17T20:49:01.560Z,100.00
2023-02-17T20:51:29.933Z,100.00
2023-02-17T20:53:57.645Z,100.00
2023-02-17T20:56:34.476Z,100.00
2023-02-17T20:59:03.378Z,100.00
2023-02-17T21:01:31.681Z,100.00
2023-02-17T21:03:59.494Z,100.00
2023-02-17T21:06:31.088Z,100.00
2023-02-17T21:09:02.410Z,100.00
2023-02-17T21:11:31.549Z,100.00
2023-02-17T21:14:02.621Z,100.00
2023-02-17T21:16:46.420Z,100.00
2023-02-17T21:19:14.237Z,100.00
2023-02-17T21:21:42.278Z,100.00
2023-02-17T21:24:10.098Z,100.00
2023-02-17T21:26:38.322Z,100.00
2023-02-17T21:29:07.093Z,100.00
2023-02-17T21:31:36.211Z,100.00
2023-02-17T21:34:04.388Z,100.00
2023-02-17T21:36:32.142Z,100.00
2023-02-17T21:39:00.167Z,100.00
